Time;durP1;ratioP1;P1;durP2;ratioP2;P2;SDS_P1;SDS_P2;PMS_P1;PMS_P2;Temp;Humidity;BMP_temperature;BMP_pressure;BME280_temperature;BME280_humidity;BME280_pressure;Samples;Min_cycle;Max_cycle;Signal;HPM_P1;HPM_P2
2023/06/23 00:00:15;;;;;;;24.27;18.67;;;;;;;14.31;100.00;101633.00;5014759;28;20575;-71
2023/06/23 00:02:41;;;;;;;19.40;16.80;;;;;;;14.27;100.00;101652.84;5018726;28;20025;-71
2023/06/23 00:05:08;;;;;;;20.33;16.83;;;;;;;14.28;100.00;101651.03;5042743;28;20044;-72
2023/06/23 00:07:37;;;;;;;19.08;16.10;;;;;;;14.16;100.00;101644.53;5042729;28;20024;-72
2023/06/23 00:10:05;;;;;;;20.67;16.77;;;;;;;14.10;100.00;101642.19;5042622;28;20541;-72
2023/06/23 00:12:35;;;;;;;23.48;17.02;;;;;;;14.11;100.00;101644.78;5042521;28;20147;-71
2023/06/23 00:15:07;;;;;;;19.70;16.30;;;;;;;14.10;100.00;101655.56;5041744;28;20032;-71
2023/06/23 00:17:33;;;;;;;24.35;16.95;;;;;;;14.07;100.00;101661.94;5037399;28;20032;-71
2023/06/23 00:19:58;;;;;;;23.45;17.80;;;;;;;14.09;100.00;101667.22;5042172;28;20025;-71
2023/06/23 00:22:25;;;;;;;20.38;17.05;;;;;;;14.05;100.00;101677.22;5041545;28;20021;-71
2023/06/23 00:24:50;;;;;;;20.10;16.67;;;;;;;13.98;100.00;101678.47;5040267;28;20033;-71
2023/06/23 00:27:16;;;;;;;22.08;16.83;;;;;;;14.00;100.00;101675.72;5042806;28;20442;-71
2023/06/23 00:29:42;;;;;;;21.70;17.73;;;;;;;13.98;100.00;101678.47;5042700;28;20028;-69
2023/06/23 00:32:08;;;;;;;22.65;17.35;;;;;;;13.94;100.00;101676.91;5039682;28;20482;-71
2023/06/23 00:34:33;;;;;;;22.67;18.50;;;;;;;14.00;100.00;101683.75;5040631;28;20091;-69
2023/06/23 00:36:59;;;;;;;23.77;18.65;;;;;;;13.87;100.00;101673.66;5042020;28;20032;-69
2023/06/23 00:39:24;;;;;;;24.13;19.42;;;;;;;13.92;100.00;101682.34;5042421;28;20039;-70
2023/06/23 00:41:50;;;;;;;28.35;20.20;;;;;;;13.90;100.00;101681.56;5042721;28;20585;-69
2023/06/23 00:44:16;;;;;;;25.90;19.80;;;;;;;13.91;100.00;101688.63;5024634;28;20108;-69
2023/06/23 00:46:43;;;;;;;26.83;20.17;;;;;;;13.87;100.00;101699.56;5024657;28;20129;-70
2023/06/23 00:49:09;;;;;;;27.35;21.42;;;;;;;13.89;100.00;101698.56;5040141;28;20033;-69
2023/06/23 00:51:35;;;;;;;28.63;21.95;;;;;;;13.89;100.00;101703.06;5041579;28;20017;-70
2023/06/23 00:54:00;;;;;;;28.65;21.98;;;;;;;13.89;100.00;101709.25;5041521;28;20510;-70
2023/06/23 00:56:27;;;;;;;32.47;22.35;;;;;;;13.84;100.00;101705.09;5040750;28;20037;-72
2023/06/23 00:58:54;;;;;;;28.85;21.65;;;;;;;13.88;100.00;101720.06;5041539;28;20025;-70
2023/06/23 01:01:20;;;;;;;30.92;22.73;;;;;;;13.92;100.00;101722.50;5037230;28;20027;-70
2023/06/23 01:03:45;;;;;;;33.97;24.55;;;;;;;13.88;100.00;101723.59;5038744;28;20426;-70
2023/06/23 01:06:26;;;;;;;34.58;24.48;;;;;;;13.86;100.00;101722.78;5040808;28;20154;-71
2023/06/23 01:09:12;;;;;;;31.05;24.10;;;;;;;13.86;100.00;101722.78;5039850;28;20029;-70
2023/06/23 01:11:48;;;;;;;36.38;26.13;;;;;;;13.86;100.00;101730.81;5039852;28;20260;-71
2023/06/23 01:14:23;;;;;;;33.50;25.55;;;;;;;13.86;100.00;101736.16;5044824;28;20025;-70
2023/06/23 01:17:00;;;;;;;35.80;26.23;;;;;;;13.84;100.00;101731.88;5032629;28;20032;-70
2023/06/23 01:19:44;;;;;;;35.78;26.90;;;;;;;13.83;100.00;101732.78;5022227;28;20077;-71
2023/06/23 01:22:09;;;;;;;;;;;;;;;13.81;100.00;101738.22;5033923;28;20079;-71
2023/06/23 01:25:14;;;;;;;38.47;26.93;;;;;;;13.84;100.00;101732.72;5045135;28;20366;-70
2023/06/23 01:27:58;;;;;;;40.22;28.23;;;;;;;13.83;100.00;101740.81;5041143;28;20854;-70
2023/06/23 01:30:26;;;;;;;37.92;29.17;;;;;;;13.84;100.00;101738.06;5045342;28;20039;-71
2023/06/23 01:32:58;;;;;;;40.88;30.30;;;;;;;13.89;100.00;101741.38;5044297;28;20040;-70
2023/06/23 01:35:28;;;;;;;44.05;32.03;;;;;;;13.86;100.00;101740.66;5045409;28;20535;-70
2023/06/23 01:38:06;;;;;;;42.95;32.03;;;;;;;13.83;100.00;101743.47;5044822;28;20036;-71
2023/06/23 01:40:32;;;;;;;45.67;33.95;;;;;;;13.83;100.00;101752.38;5043880;28;20060;-71
2023/06/23 01:43:00;;;;;;;46.28;33.55;;;;;;;13.80;100.00;101746.34;5041696;28;20290;-72
2023/06/23 01:45:27;;;;;;;47.10;33.92;;;;;;;13.80;100.00;101757.91;5045977;28;20231;-71
2023/06/23 01:47:54;;;;;;;45.80;34.38;;;;;;;13.81;100.00;101750.75;5044128;28;20130;-70
2023/06/23 01:50:21;;;;;;;47.38;34.53;;;;;;;13.84;100.00;101758.63;5044221;28;20451;-70
2023/06/23 01:52:51;;;;;;;49.40;36.85;;;;;;;13.80;100.00;101760.56;5036130;28;20130;-70
2023/06/23 01:55:19;;;;;;;44.25;33.85;;;;;;;13.79;100.00;101763.31;5045309;28;20040;-70
2023/06/23 01:57:46;;;;;;;52.72;37.30;;;;;;;13.81;100.00;101769.47;5037580;28;20115;-71
2023/06/23 02:00:15;;;;;;;51.00;36.83;;;;;;;13.78;100.00;101774.97;5043013;28;20025;-72
2023/06/23 02:02:43;;;;;;;47.85;36.33;;;;;;;13.77;100.00;101774.09;5043626;28;20029;-71
2023/06/23 02:05:11;;;;;;;49.13;37.53;;;;;;;13.77;100.00;101773.25;5044509;28;20032;-72
2023/06/23 02:07:40;;;;;;;49.15;36.95;;;;;;;13.77;100.00;101776.78;5042063;28;20351;-72
2023/06/23 02:10:07;;;;;;;49.45;37.67;;;;;;;13.75;100.00;101788.47;5038967;28;20490;-72
2023/06/23 02:12:35;;;;;;;47.53;35.95;;;;;;;13.72;100.00;101785.97;5044020;28;20028;-71
2023/06/23 02:15:03;;;;;;;48.67;37.00;;;;;;;13.72;100.00;101785.97;5044032;28;20033;-71
2023/06/23 02:17:29;;;;;;;45.10;36.08;;;;;;;13.68;100.00;101790.63;5040235;28;20049;-71
2023/06/23 02:19:56;;;;;;;47.47;36.63;;;;;;;13.65;100.00;101791.63;5023570;28;20032;-71
2023/06/23 02:22:24;;;;;;;50.08;37.28;;;;;;;13.65;100.00;101798.78;5037070;28;20025;-72
2023/06/23 02:24:51;;;;;;;49.00;37.08;;;;;;;13.64;100.00;101800.59;5039845;28;20037;-71
2023/06/23 02:27:18;;;;;;;48.17;36.70;;;;;;;13.60;100.00;101803.50;5042411;28;20024;-71
2023/06/23 02:29:44;;;;;;;50.70;37.97;;;;;;;13.61;100.00;101807.88;5044527;28;20036;-72
2023/06/23 02:32:17;;;;;;;51.08;38.55;;;;;;;13.65;100.00;101818.38;5042329;28;20029;-70
2023/06/23 02:34:48;;;;;;;51.58;39.28;;;;;;;13.61;100.00;101829.28;5041729;28;20028;-70
2023/06/23 02:37:19;;;;;;;53.28;39.22;;;;;;;13.59;100.00;101833.88;5039654;28;20028;-71
2023/06/23 02:40:10;;;;;;;51.60;38.05;;;;;;;13.54;100.00;101831.38;5043063;28;20104;-71
2023/06/23 02:42:41;;;;;;;50.25;37.45;;;;;;;13.55;100.00;101840.28;5039765;28;20044;-71
2023/06/23 02:45:15;;;;;;;50.40;39.55;;;;;;;13.54;100.00;101839.41;5044284;28;20028;-71
2023/06/23 02:47:43;;;;;;;52.75;39.80;;;;;;;13.50;100.00;101839.63;5041737;28;20028;-72
2023/06/23 02:50:14;;;;;;;54.25;39.47;;;;;;;13.47;100.00;101837.13;5042278;28;20108;-71
2023/06/23 02:52:46;;;;;;;51.15;40.13;;;;;;;13.51;100.00;101849.41;5037851;28;20064;-71
2023/06/23 02:55:15;;;;;;;55.33;41.08;;;;;;;13.51;100.00;101852.09;5042473;28;20112;-72
2023/06/23 02:57:41;;;;;;;51.80;40.70;;;;;;;13.43;100.00;101842.59;5030789;28;20029;-71
2023/06/23 03:00:13;;;;;;;60.35;41.28;;;;;;;13.42;100.00;101848.91;5041245;28;20065;-70
2023/06/23 03:02:42;;;;;;;58.85;42.30;;;;;;;13.45;100.00;101847.88;5041453;28;20067;-72
2023/06/23 03:05:08;;;;;;;56.58;42.92;;;;;;;13.40;100.00;101853.44;5031318;28;20048;-72
2023/06/23 03:07:38;;;;;;;56.40;43.10;;;;;;;13.47;100.00;101855.84;5039984;28;20483;-71
2023/06/23 03:10:05;;;;;;;61.38;44.30;;;;;;;13.41;100.00;101856.97;5041782;28;20036;-71
2023/06/23 03:12:31;;;;;;;57.20;44.08;;;;;;;13.39;100.00;101854.38;5041307;28;20074;-71
2023/06/23 03:14:57;;;;;;;57.85;42.67;;;;;;;13.36;100.00;101857.19;5039441;28;20040;-71
2023/06/23 03:17:25;;;;;;;61.95;44.75;;;;;;;13.35;100.00;101855.47;5037439;28;20096;-71
2023/06/23 03:20:00;;;;;;;61.70;45.63;;;;;;;13.36;100.00;101854.50;5038456;28;20031;-70
2023/06/23 03:22:49;;;;;;;63.38;45.03;;;;;;;13.37;100.00;101860.72;5028317;28;20035;-71
2023/06/23 03:25:20;;;;;;;60.53;45.08;;;;;;;13.33;100.00;101860.00;5029394;28;20071;-71
2023/06/23 03:27:48;;;;;;;61.25;44.08;;;;;;;13.26;100.00;101839.00;5015088;28;20084;-71
2023/06/23 03:30:23;;;;;;;60.67;45.67;;;;;;;13.34;100.00;101863.56;5014019;28;20039;-72
2023/06/23 03:32:51;;;;;;;63.75;46.00;;;;;;;13.35;100.00;101859.94;5032946;28;20538;-70
2023/06/23 03:35:22;;;;;;;61.83;48.05;;;;;;;13.38;100.00;101862.50;5029702;28;21446;-70
2023/06/23 03:37:49;;;;;;;62.53;45.25;;;;;;;13.31;100.00;101864.56;5028170;28;21622;-71
2023/06/23 03:40:19;;;;;;;60.67;45.90;;;;;;;13.28;100.00;101878.06;5017336;28;20056;-71
2023/06/23 03:43:07;;;;;;;63.60;45.85;;;;;;;13.27;100.00;101873.66;5043588;28;20153;-71
2023/06/23 03:45:34;;;;;;;65.22;48.25;;;;;;;13.36;100.00;101875.91;5042823;28;20042;-71
2023/06/23 03:48:03;;;;;;;63.88;47.22;;;;;;;13.28;100.00;101872.72;5042946;28;20479;-70
2023/06/23 03:50:34;;;;;;;60.55;46.35;;;;;;;13.29;100.00;101885.13;5042930;28;20021;-70
2023/06/23 03:53:02;;;;;;;59.55;44.45;;;;;;;13.28;100.00;101879.88;5042574;28;20051;-71
2023/06/23 03:55:31;;;;;;;61.30;45.58;;;;;;;13.27;100.00;101876.34;5037425;28;20083;-71
2023/06/23 03:58:02;;;;;;;61.92;46.45;;;;;;;13.27;100.00;101870.13;5024325;28;20028;-71
2023/06/23 04:00:30;;;;;;;59.95;44.00;;;;;;;13.26;100.00;101884.44;5042040;28;20033;-71
2023/06/23 04:02:59;;;;;;;61.42;46.33;;;;;;;13.33;100.00;101886.72;5042696;28;20131;-72
2023/06/23 04:05:28;;;;;;;64.57;48.75;;;;;;;13.38;100.00;101892.75;5032302;28;20032;-72
2023/06/23 04:07:55;;;;;;;64.85;46.58;;;;;;;13.35;100.00;101903.59;5042961;28;20036;-72
2023/06/23 04:10:22;;;;;;;58.90;43.30;;;;;;;13.31;100.00;101904.66;5042035;28;20226;-69
2023/06/23 04:12:52;;;;;;;58.53;42.88;;;;;;;13.35;100.00;101892.03;5043245;28;20028;-70
2023/06/23 04:15:21;;;;;;;63.45;47.08;;;;;;;13.38;100.00;101900.78;5039543;28;20017;-69
2023/06/23 04:17:49;;;;;;;60.88;45.05;;;;;;;13.41;100.00;101897.94;5042565;28;20144;-70
2023/06/23 04:20:15;;;;;;;60.47;47.05;;;;;;;13.41;100.00;101899.75;5036339;28;20090;-70
2023/06/23 04:22:44;;;;;;;62.47;45.38;;;;;;;13.41;100.00;101905.97;5031533;28;20139;-70
2023/06/23 04:25:12;;;;;;;64.70;48.13;;;;;;;13.46;100.00;101903.13;5041882;28;20025;-70
2023/06/23 04:27:38;;;;;;;61.78;47.17;;;;;;;13.49;100.00;101907.44;5037301;28;20108;-70
2023/06/23 04:30:06;;;;;;;63.83;45.30;;;;;;;13.51;100.00;101910.91;5042833;28;20470;-70
2023/06/23 04:32:34;;;;;;;60.78;46.70;;;;;;;13.53;100.00;101920.59;5041019;28;20025;-69
2023/06/23 04:34:59;;;;;;;65.20;47.80;;;;;;;13.58;100.00;101931.06;5042738;28;20033;-69
2023/06/23 04:37:47;;;;;;;59.22;45.17;;;;;;;13.59;100.00;101928.34;5042235;28;20478;-71
2023/06/23 04:40:18;;;;;;;65.50;48.47;;;;;;;13.65;100.00;101924.50;5034537;28;20174;-69
2023/06/23 04:43:26;;;;;;;64.60;47.83;;;;;;;13.68;100.00;101940.44;5041954;28;20040;-70
2023/06/23 04:46:03;;;;;;;61.08;46.47;;;;;;;13.72;100.00;101938.47;4974830;28;20056;-70
2023/06/23 04:48:34;;;;;;;65.05;46.88;;;;;;;13.76;100.00;101940.09;5045725;28;20025;-70
2023/06/23 04:51:05;;;;;;;66.50;48.50;;;;;;;13.81;100.00;101940.72;5042078;28;20094;-69
2023/06/23 04:53:33;;;;;;;60.45;46.95;;;;;;;13.77;100.00;101923.94;5035750;28;20159;-71
2023/06/23 04:56:04;;;;;;;64.03;48.75;;;;;;;13.87;100.00;101930.59;5047644;28;20341;-69
2023/06/23 04:58:34;;;;;;;67.93;49.90;;;;;;;14.00;100.00;101946.06;5047942;28;20052;-70
2023/06/23 05:01:01;;;;;;;64.72;48.92;;;;;;;14.06;100.00;101949.31;5048240;28;20124;-70
2023/06/23 05:03:29;;;;;;;71.55;50.60;;;;;;;14.10;100.00;101947.38;5044748;28;20407;-70
2023/06/23 05:05:57;;;;;;;67.18;48.80;;;;;;;14.10;100.00;101945.56;5046520;28;20336;-71
2023/06/23 05:08:26;;;;;;;66.80;49.00;;;;;;;14.13;100.00;101947.25;5047265;28;20029;-70
2023/06/23 05:10:52;;;;;;;69.13;50.63;;;;;;;14.26;100.00;101960.91;5029475;28;20581;-70
2023/06/23 05:13:19;;;;;;;62.03;47.22;;;;;;;14.26;100.00;101964.44;5048078;28;20079;-69
2023/06/23 05:15:47;;;;;;;68.45;50.90;;;;;;;14.34;100.00;101970.28;5043935;28;20037;-69
2023/06/23 05:18:15;;;;;;;70.95;51.05;;;;;;;14.40;100.00;101961.94;5037392;28;20024;-70
2023/06/23 05:20:41;;;;;;;66.60;49.75;;;;;;;14.42;100.00;101967.22;5019765;28;20656;-70
2023/06/23 05:23:10;;;;;;;60.53;46.83;;;;;;;14.53;100.00;101962.22;5048529;28;20311;-71
2023/06/23 05:25:37;;;;;;;62.50;48.28;;;;;;;14.55;100.00;101962.19;5045464;28;20455;-70
2023/06/23 05:28:04;;;;;;;68.25;50.40;;;;;;;14.63;100.00;101959.94;5048343;28;20074;-70
2023/06/23 05:30:31;;;;;;;62.60;46.78;;;;;;;14.64;100.00;101969.75;5046838;28;20265;-69
2023/06/23 05:33:00;;;;;;;63.63;48.97;;;;;;;14.74;100.00;101965.66;5045793;28;20054;-70
2023/06/23 05:35:27;;;;;;;60.92;48.97;;;;;;;14.82;100.00;101979.53;5046465;28;20012;-71
2023/06/23 05:37:53;;;;;;;61.00;47.70;;;;;;;14.85;100.00;101979.38;5041320;28;20544;-70
2023/06/23 05:40:19;;;;;;;62.08;49.25;;;;;;;15.01;100.00;101975.94;5048198;28;20576;-71
2023/06/23 05:42:45;;;;;;;66.85;49.10;;;;;;;15.06;100.00;101972.06;5052049;28;20020;-72
2023/06/23 05:45:11;;;;;;;65.53;48.95;;;;;;;15.16;100.00;101972.44;5045247;28;20633;-70
2023/06/23 05:47:45;;;;;;;64.57;48.17;;;;;;;15.24;100.00;101980.94;5047004;28;20102;-71
2023/06/23 05:50:24;;;;;;;62.75;48.22;;;;;;;15.29;100.00;101981.56;5028782;28;20033;-71
2023/06/23 05:52:56;;;;;;;62.20;47.85;;;;;;;15.38;100.00;101994.53;5043984;28;20193;-70
2023/06/23 05:55:23;;;;;;;59.90;47.22;;;;;;;15.45;100.00;101987.00;5047149;28;20115;-69
2023/06/23 05:57:52;;;;;;;60.63;45.53;;;;;;;15.68;100.00;102002.78;5030871;28;20082;-71
2023/06/23 06:00:20;;;;;;;63.60;46.10;;;;;;;15.80;100.00;101998.56;5040369;28;20033;-70
2023/06/23 06:02:48;;;;;;;59.75;43.90;;;;;;;15.92;100.00;101992.50;5041895;28;20572;-69
2023/06/23 06:05:17;;;;;;;50.78;40.78;;;;;;;15.98;100.00;101991.31;5042474;28;20029;-70
2023/06/23 06:07:44;;;;;;;51.35;40.60;;;;;;;16.10;100.00;102005.88;5027238;28;20029;-70
2023/06/23 06:10:11;;;;;;;50.35;39.80;;;;;;;16.24;100.00;102010.47;5035202;28;20030;-69
2023/06/23 06:12:38;;;;;;;49.88;39.80;;;;;;;16.42;100.00;102010.28;5036637;28;20078;-70
2023/06/23 06:15:06;;;;;;;46.03;37.83;;;;;;;16.57;100.00;102019.31;5043242;28;20510;-70
2023/06/23 06:17:33;;;;;;;42.75;34.95;;;;;;;16.64;100.00;102020.72;5022056;28;20036;-71
2023/06/23 06:20:02;;;;;;;45.60;36.45;;;;;;;16.78;100.00;102030.69;5043777;28;20029;-70
2023/06/23 06:22:32;;;;;;;44.67;34.47;;;;;;;16.89;100.00;102025.56;5038817;28;20025;-70
2023/06/23 06:24:59;;;;;;;41.63;33.60;;;;;;;17.11;100.00;102035.91;5043269;28;20032;-70
2023/06/23 06:27:27;;;;;;;40.65;34.47;;;;;;;17.32;100.00;102030.19;5043850;28;20548;-70
2023/06/23 06:29:56;;;;;;;41.63;33.22;;;;;;;17.60;100.00;102035.63;5042782;28;20048;-70
2023/06/23 06:32:29;;;;;;;38.50;32.63;;;;;;;17.86;100.00;102036.75;5041411;28;20074;-70
2023/06/23 06:34:57;;;;;;;39.37;32.50;;;;;;;17.98;100.00;102032.41;5035189;28;20175;-71
2023/06/23 06:37:25;;;;;;;34.30;29.80;;;;;;;18.29;100.00;102031.31;5042512;28;20028;-71
2023/06/23 06:39:54;;;;;;;34.63;30.35;;;;;;;18.55;100.00;102039.53;5036524;28;20063;-70
2023/06/23 06:42:20;;;;;;;37.22;30.38;;;;;;;18.59;100.00;102044.63;5042156;28;20056;-69
2023/06/23 06:44:45;;;;;;;33.38;28.90;;;;;;;18.63;100.00;102047.97;5036327;28;20064;-71
2023/06/23 06:47:11;;;;;;;32.78;28.63;;;;;;;18.55;100.00;102042.22;5034798;28;20363;-71
2023/06/23 06:49:39;;;;;;;30.33;27.10;;;;;;;18.58;100.00;102047.41;5028992;28;20102;-70
2023/06/23 06:52:06;;;;;;;31.25;27.17;;;;;;;18.42;100.00;102053.81;5039319;28;20051;-70
2023/06/23 06:54:33;;;;;;;30.63;26.83;;;;;;;18.35;100.00;102060.56;5040133;28;20033;-70
2023/06/23 06:56:58;;;;;;;31.83;28.42;;;;;;;18.31;100.00;102059.03;5040407;28;20204;-70
2023/06/23 06:59:24;;;;;;;33.00;28.13;;;;;;;18.24;100.00;102060.38;5044928;28;20058;-71
2023/06/23 07:01:50;;;;;;;31.60;28.20;;;;;;;18.52;100.00;102066.69;5043839;28;20036;-71
2023/06/23 07:04:16;;;;;;;31.45;27.00;;;;;;;18.67;100.00;102063.00;5040851;28;20449;-71
2023/06/23 07:06:41;;;;;;;32.50;28.92;;;;;;;18.91;100.00;102080.28;5039698;28;20537;-71
2023/06/23 07:09:07;;;;;;;32.25;27.83;;;;;;;19.07;100.00;102080.13;5039903;28;20029;-72
2023/06/23 07:11:33;;;;;;;29.60;26.42;;;;;;;19.01;100.00;102080.53;5033392;28;20109;-70
2023/06/23 07:13:59;;;;;;;34.35;27.50;;;;;;;19.15;100.00;102085.88;5034915;28;20032;-71
2023/06/23 07:16:30;;;;;;;27.75;24.95;;;;;;;19.36;100.00;102085.41;5022343;28;20033;-72
2023/06/23 07:18:56;;;;;;;27.23;23.85;;;;;;;19.55;100.00;102087.69;5040069;28;20025;-71
2023/06/23 07:21:22;;;;;;;26.67;23.88;;;;;;;19.74;100.00;102092.72;5039907;28;20143;-71
2023/06/23 07:23:48;;;;;;;27.92;24.98;;;;;;;20.01;100.00;102089.91;5034048;28;20653;-72
2023/06/23 07:26:13;;;;;;;27.70;24.92;;;;;;;20.34;100.00;102097.44;5036397;28;20167;-69
2023/06/23 07:28:38;;;;;;;25.67;23.00;;;;;;;20.64;100.00;102095.22;5026072;28;20043;-71
2023/06/23 07:31:04;;;;;;;24.10;21.55;;;;;;;20.67;100.00;102098.69;5039200;28;20426;-71
2023/06/23 07:33:30;;;;;;;20.95;18.83;;;;;;;21.12;97.73;102097.13;5039510;28;20036;-70
2023/06/23 07:35:55;;;;;;;22.13;19.73;;;;;;;21.47;98.42;102104.41;5030140;28;20231;-69
2023/06/23 07:38:21;;;;;;;20.17;18.17;;;;;;;22.02;92.19;102097.38;5039717;28;20095;-71
2023/06/23 07:40:46;;;;;;;19.88;17.67;;;;;;;22.27;89.54;102099.03;5041550;28;20025;-72
2023/06/23 07:43:13;;;;;;;19.30;17.40;;;;;;;22.72;89.34;102105.25;5038651;28;20340;-70
2023/06/23 07:45:38;;;;;;;17.63;15.93;;;;;;;22.82;84.17;102106.25;5036509;28;20013;-72
2023/06/23 07:48:04;;;;;;;18.55;16.65;;;;;;;23.38;84.76;102104.34;5038489;28;20040;-72
2023/06/23 07:50:29;;;;;;;18.45;16.65;;;;;;;24.07;78.83;102107.38;5023488;28;20487;-71
2023/06/23 07:52:55;;;;;;;18.75;16.95;;;;;;;24.60;76.30;102107.22;5037974;28;20228;-72
2023/06/23 07:55:20;;;;;;;18.05;16.23;;;;;;;25.01;72.52;102110.75;5043154;28;20033;-71
2023/06/23 07:57:46;;;;;;;16.42;14.82;;;;;;;25.08;70.16;102109.16;5036813;28;20090;-71
2023/06/23 08:00:12;;;;;;;17.50;15.68;;;;;;;25.17;69.43;102102.91;5039514;28;20190;-73
2023/06/23 08:02:38;;;;;;;15.18;13.68;;;;;;;25.62;68.23;102101.41;5037236;28;20395;-71
2023/06/23 08:05:03;;;;;;;13.70;12.40;;;;;;;26.04;61.57;102108.25;5036969;28;20036;-72
2023/06/23 08:07:29;;;;;;;16.52;14.98;;;;;;;26.31;62.19;102109.31;5036822;28;20033;-73
2023/06/23 08:09:54;;;;;;;16.40;14.75;;;;;;;26.80;60.57;102119.00;5045576;28;20429;-74
2023/06/23 08:12:19;;;;;;;15.23;13.63;;;;;;;26.90;60.52;102118.06;5042404;28;20249;-73
2023/06/23 08:14:45;;;;;;;15.27;13.70;;;;;;;27.19;58.62;102126.94;5038199;28;20120;-72
2023/06/23 08:17:10;;;;;;;14.05;12.65;;;;;;;27.20;57.54;102128.66;5036198;28;20059;-74
2023/06/23 08:19:36;;;;;;;11.95;10.80;;;;;;;27.71;54.05;102123.44;5038071;28;20044;-72
2023/06/23 08:22:03;;;;;;;11.77;10.68;;;;;;;27.78;53.59;102116.34;5041433;28;20039;-74
2023/06/23 08:24:28;;;;;;;10.25;9.00;;;;;;;27.98;49.89;102119.75;5040499;28;20330;-74
2023/06/23 08:26:54;;;;;;;10.48;9.40;;;;;;;28.38;50.73;102121.88;5034144;28;20534;-73
2023/06/23 08:29:19;;;;;;;11.85;10.60;;;;;;;28.69;49.55;102121.31;5034843;28;20123;-71
2023/06/23 08:31:45;;;;;;;11.68;10.48;;;;;;;29.24;50.74;102129.88;5042573;28;20503;-72
2023/06/23 08:34:10;;;;;;;10.43;9.40;;;;;;;29.46;48.46;102128.31;5034907;28;20052;-72
2023/06/23 08:36:35;;;;;;;9.10;8.13;;;;;;;29.78;47.73;102135.72;5040648;28;20039;-72
2023/06/23 08:39:01;;;;;;;9.45;8.45;;;;;;;29.71;44.80;102142.94;5039688;28;20025;-74
2023/06/23 08:41:29;;;;;;;9.38;8.48;;;;;;;29.95;43.98;102133.81;5020300;28;20483;-73
2023/06/23 08:43:58;;;;;;;8.77;7.88;;;;;;;30.34;46.61;102132.19;5037579;28;20029;-70
2023/06/23 08:46:30;;;;;;;9.52;8.52;;;;;;;30.98;43.99;102144.81;5039130;28;20078;-73
2023/06/23 08:49:00;;;;;;;8.77;7.97;;;;;;;31.40;44.04;102145.41;5040976;28;20333;-73
2023/06/23 08:51:25;;;;;;;11.30;10.20;;;;;;;31.30;42.06;102150.28;5040190;28;20032;-73
2023/06/23 08:53:51;;;;;;;11.00;9.15;;;;;;;31.91;41.76;102151.19;5040908;28;20061;-73
2023/06/23 08:56:17;;;;;;;9.18;8.27;;;;;;;32.37;41.84;102151.88;5039745;28;20030;-72
2023/06/23 08:58:42;;;;;;;7.38;6.70;;;;;;;32.02;42.04;102167.22;5037132;28;20359;-71
2023/06/23 09:01:07;;;;;;;7.18;6.30;;;;;;;32.38;39.11;102161.88;5040889;28;20068;-72
2023/06/23 09:03:34;;;;;;;6.88;6.10;;;;;;;32.31;37.22;102157.28;5039960;28;20128;-71
2023/06/23 09:06:00;;;;;;;6.68;5.90;;;;;;;32.05;37.72;102175.13;5036919;28;20296;-72
2023/06/23 09:08:26;;;;;;;7.18;6.47;;;;;;;32.58;37.76;102164.06;5039529;28;20039;-71
2023/06/23 09:10:51;;;;;;;7.93;5.97;;;;;;;33.31;36.36;102175.97;5040843;28;20294;-71
2023/06/23 09:13:23;;;;;;;7.20;6.32;;;;;;;33.53;36.24;102174.97;5041585;28;20112;-73
2023/06/23 09:15:50;;;;;;;8.10;6.05;;;;;;;34.15;34.92;102174.25;5026713;28;20032;-72
2023/06/23 09:18:16;;;;;;;9.48;8.68;;;;;;;33.89;34.20;102172.09;5035489;28;20030;-73
2023/06/23 09:20:47;;;;;;;9.30;7.60;;;;;;;33.93;34.77;102181.69;5030891;28;20033;-73
2023/06/23 09:23:14;;;;;;;8.27;6.80;;;;;;;34.35;34.07;102176.25;5037443;28;20792;-71
2023/06/23 09:25:43;;;;;;;9.15;7.45;;;;;;;34.26;34.68;102188.53;5040084;28;20029;-74
2023/06/23 09:28:26;;;;;;;8.02;7.25;;;;;;;34.29;34.01;102180.69;5017892;28;20136;-72
2023/06/23 09:30:55;;;;;;;6.90;4.70;;;;;;;34.58;30.59;102178.78;5031568;28;20053;-74
2023/06/23 09:33:21;;;;;;;5.65;5.10;;;;;;;34.66;29.89;102189.66;5038701;28;20027;-74
2023/06/23 09:35:48;;;;;;;5.15;4.65;;;;;;;35.07;30.89;102195.16;5045027;28;20469;-72
2023/06/23 09:38:16;;;;;;;5.15;4.65;;;;;;;34.98;30.29;102201.94;5043617;28;20021;-71
2023/06/23 09:40:42;;;;;;;6.13;5.22;;;;;;;35.59;29.13;102201.91;5041576;28;20028;-74
2023/06/23 09:43:07;;;;;;;6.85;5.50;;;;;;;35.21;29.48;102204.38;5040148;28;20482;-72
2023/06/23 09:45:33;;;;;;;5.80;5.22;;;;;;;35.67;30.04;102209.16;5043044;28;20151;-75
2023/06/23 09:47:59;;;;;;;6.78;6.18;;;;;;;34.94;29.51;102203.38;5038923;28;20017;-72
2023/06/23 09:50:27;;;;;;;6.20;5.57;;;;;;;35.32;31.20;102198.19;5041341;28;20075;-75
2023/06/23 09:53:04;;;;;;;7.45;6.60;;;;;;;35.62;30.87;102207.03;5041679;28;20049;-74
2023/06/23 09:55:31;;;;;;;7.38;6.68;;;;;;;36.20;28.91;102206.38;5038589;28;20517;-73
2023/06/23 09:57:57;;;;;;;11.20;6.40;;;;;;;36.15;28.75;102204.28;5042524;28;20040;-75
2023/06/23 10:00:32;;;;;;;5.90;4.90;;;;;;;36.40;29.92;102193.34;5038233;28;20044;-77
2023/06/23 10:02:59;;;;;;;5.82;4.97;;;;;;;36.60;28.94;102201.66;5039351;28;20058;-75
2023/06/23 10:05:25;;;;;;;6.40;5.35;;;;;;;36.01;28.65;102204.50;5036916;28;20029;-75
2023/06/23 10:08:05;;;;;;;5.60;4.88;;;;;;;36.46;29.47;102194.44;5023213;28;20055;-73
2023/06/23 10:10:31;;;;;;;5.57;5.03;;;;;;;36.13;28.49;102197.25;5040257;28;20033;-73
2023/06/23 10:12:56;;;;;;;6.25;5.65;;;;;;;36.56;28.19;102196.75;5042704;28;20440;-76
2023/06/23 10:15:26;;;;;;;6.28;5.00;;;;;;;36.47;27.71;102203.63;5025752;28;20029;-75
2023/06/23 10:17:52;;;;;;;5.43;4.93;;;;;;;37.00;27.94;102197.91;5036878;28;20029;-73
2023/06/23 10:20:17;;;;;;;6.80;5.47;;;;;;;37.60;27.75;102190.91;5033575;28;20022;-76
2023/06/23 10:22:44;;;;;;;5.32;4.82;;;;;;;37.50;27.16;102196.13;5042018;28;20071;-75
2023/06/23 10:25:10;;;;;;;7.00;5.28;;;;;;;37.56;26.26;102189.66;5041616;28;20036;-73
2023/06/23 10:27:37;;;;;;;6.97;5.70;;;;;;;38.07;26.77;102183.03;5037863;28;20033;-77
2023/06/23 10:30:03;;;;;;;6.85;5.40;;;;;;;38.36;26.24;102186.19;5018887;28;20294;-73
2023/06/23 10:32:30;;;;;;;6.18;5.57;;;;;;;39.02;24.85;102201.25;5041269;28;20013;-76
2023/06/23 10:34:58;;;;;;;5.68;5.15;;;;;;;38.25;26.62;102207.25;5035823;28;20028;-74
2023/06/23 10:37:27;;;;;;;5.10;4.60;;;;;;;35.34;29.59;102209.09;5036328;28;20028;-75
2023/06/23 10:40:04;;;;;;;5.88;5.15;;;;;;;34.15;33.01;102204.66;5042374;28;20043;-74
2023/06/23 10:42:34;;;;;;;5.85;5.18;;;;;;;35.30;30.01;102193.97;5038475;28;20029;-78
2023/06/23 10:45:00;;;;;;;5.65;5.03;;;;;;;36.09;28.94;102198.75;5041028;28;20053;-74
2023/06/23 10:47:26;;;;;;;8.20;5.97;;;;;;;36.79;26.88;102210.13;5039290;28;20132;-77
2023/06/23 10:49:52;;;;;;;5.30;4.70;;;;;;;37.70;26.91;102195.94;5039762;28;20119;-77
2023/06/23 10:52:17;;;;;;;7.28;5.40;;;;;;;37.73;26.26;102211.31;5041233;28;20510;-74
2023/06/23 10:54:43;;;;;;;5.57;5.07;;;;;;;38.42;25.52;102210.31;5040218;28;20142;-73
2023/06/23 10:57:10;;;;;;;5.82;5.07;;;;;;;38.76;24.82;102202.41;5039266;28;20452;-72
2023/06/23 10:59:41;;;;;;;5.43;4.35;;;;;;;37.99;25.50;102207.47;5038884;28;20307;-75
2023/06/23 11:02:08;;;;;;;5.05;4.30;;;;;;;37.77;25.73;102202.31;5040695;28;20151;-75
2023/06/23 11:04:36;;;;;;;5.65;5.10;;;;;;;38.20;25.00;102206.22;5036898;28;20116;-74
2023/06/23 11:07:02;;;;;;;5.07;4.53;;;;;;;39.01;25.27;102208.75;5039675;28;20467;-77
2023/06/23 11:09:58;;;;;;;5.80;5.25;;;;;;;39.19;25.98;102204.22;5040183;28;20028;-78
2023/06/23 11:12:43;;;;;;;5.55;4.80;;;;;;;38.72;26.57;102215.09;5039491;28;20043;-73